»·PEaware :: STGRY16 KLSV-KRIV

STGRY16 :: KLSV-KRIV

FLIGHT INFORMATION

Flight Status: Arrived
Operator: Unknown
More flights by this operator :: More flights under this callsign
Pilot: Gareth S. (19921)
Aircraft: Unknown
(ZZZZ)
More flights by this aircraft type
Origin: KLSV Nellis AFB
United States
Destination: KRIV March ARB
United States
More flights between these airports :: More routes between these airports
Route: +MMM7 MMM J107 BLD J107 CIVET
File this flight plan on PilotEdge
Remarks: Pocket Rocket
Altitude:
(Current/Filed)
24,000ft
Speed:
(Current/Filed)
300kts
Departed: 11-Jun-20 11:42 AM
Arrived: 11-Jun-20 12:34 PM
Distance/Time
Traveled:
179nm/0:52
Distance/Time
To Go:
Arrived

Flight Plot

Page will automatically refresh every two minutes.

Flight plan parsing failed; only flown route is shown


Map Options




Map Legend


Flown Route
Filed Route
Departure Airport
Arrival Airport
Navaid (VOR, NDB)
Fix

Horizontal Profiles

Position Reports

Time Latitude Longitude Heading Altitude Ground
Speed
11-Jun-20 11:04 36.238162 -115.037652 220 1852ft 0kts
11-Jun-20 11:05 36.238162 -115.037652 220 1852ft 0kts
11-Jun-20 11:06 36.238162 -115.037652 220 1852ft 0kts
11-Jun-20 11:07 36.238162 -115.037652 220 1852ft 0kts
11-Jun-20 11:08 36.238162 -115.037652 220 1852ft 0kts
11-Jun-20 11:09 36.238162 -115.037652 220 1852ft 0kts
11-Jun-20 11:10 36.238162 -115.037652 220 1852ft 0kts
11-Jun-20 11:11 36.238162 -115.037652 220 1852ft 0kts
11-Jun-20 11:12 36.238162 -115.037652 220 1852ft 0kts
11-Jun-20 11:13 36.238162 -115.037652 220 1852ft 0kts
11-Jun-20 11:14 36.238162 -115.037652 220 1852ft 0kts
11-Jun-20 11:15 36.238162 -115.037652 220 1852ft 0kts
11-Jun-20 11:17 36.238162 -115.037652 220 1852ft 0kts
11-Jun-20 11:18 36.238162 -115.037652 220 1852ft 0kts
11-Jun-20 11:19 36.238162 -115.037652 220 1852ft 0kts
11-Jun-20 11:20 36.238162 -115.037652 220 1852ft 0kts
11-Jun-20 11:21 36.238162 -115.037652 220 1852ft 0kts
11-Jun-20 11:22 36.238162 -115.037652 220 1852ft 0kts
11-Jun-20 11:23 36.238162 -115.037652 220 1852ft 0kts
11-Jun-20 11:24 36.238162 -115.037652 220 1852ft 0kts
11-Jun-20 11:25 36.238162 -115.037652 220 1852ft 0kts
11-Jun-20 11:26 36.238162 -115.037652 220 1852ft 0kts
11-Jun-20 11:27 36.238162 -115.037652 220 1852ft 0kts
11-Jun-20 11:28 36.238162 -115.037652 220 1852ft 0kts
11-Jun-20 11:29 36.238162 -115.037652 220 1852ft 0kts
11-Jun-20 11:30 36.238162 -115.037652 220 1852ft 0kts
11-Jun-20 11:31 36.238162 -115.037652 220 1852ft 0kts
11-Jun-20 11:32 36.238162 -115.037652 220 1852ft 0kts
11-Jun-20 11:33 36.238162 -115.037652 220 1852ft 0kts
11-Jun-20 11:33 36.238162 -115.037652 220 1852ft 0kts
11-Jun-20 11:34 36.237866 -115.037503 128 1852ft 9kts
11-Jun-20 11:36 36.233843 -115.041397 215 1852ft 17kts
11-Jun-20 11:36 36.230833 -115.044655 220 1852ft 17kts
11-Jun-20 11:38 36.227268 -115.047395 128 1852ft 0kts
11-Jun-20 11:38 36.227268 -115.047395 128 1852ft 0kts
11-Jun-20 11:39 36.227268 -115.047395 128 1852ft 0kts
11-Jun-20 11:40 36.227268 -115.047395 128 1852ft 0kts
11-Jun-20 11:41 36.234528 -115.038886 40 2382ft 175kts
11-Jun-20 11:42 36.283048 -114.985598 45 7457ft 270kts
11-Jun-20 11:43 36.341353 -114.923606 42 12468ft 297kts
11-Jun-20 11:44 36.404245 -114.857605 40 17479ft 298kts
11-Jun-20 11:45 36.465487 -114.774994 69 19760ft 369kts
11-Jun-20 11:46 36.455708 -114.659251 100 19744ft 291kts
11-Jun-20 11:47 36.448104 -114.568585 101 19024ft 255kts
11-Jun-20 11:48 36.408086 -114.526142 199 18980ft 215kts
11-Jun-20 11:49 36.366766 -114.568586 222 20606ft 198kts
11-Jun-20 11:50 36.314491 -114.623653 214 22972ft 292kts
11-Jun-20 11:51 36.237565 -114.681965 212 22982ft 340kts
11-Jun-20 11:52 36.158383 -114.741609 212 23980ft 336kts
11-Jun-20 11:53 36.077709 -114.802254 212 23981ft 341kts
11-Jun-20 11:54 35.998613 -114.862045 218 23954ft 344kts
11-Jun-20 11:55 35.933211 -114.949106 227 23980ft 346kts
11-Jun-20 11:56 35.867220 -115.038917 227 24078ft 345kts
11-Jun-20 11:57 35.803087 -115.125976 227 24001ft 341kts
11-Jun-20 11:58 35.739412 -115.212286 227 24000ft 340kts
11-Jun-20 11:59 35.675876 -115.298125 227 23999ft 336kts
11-Jun-20 12:00 35.613104 -115.382681 227 23999ft 335kts
11-Jun-20 12:01 35.550357 -115.466993 227 23998ft 334kts
11-Jun-20 12:02 35.487516 -115.551222 227 23998ft 335kts
11-Jun-20 12:03 35.424772 -115.635111 227 23997ft 335kts
11-Jun-20 12:04 35.361606 -115.719355 227 24000ft 335kts
11-Jun-20 12:05 35.298756 -115.802968 227 23999ft 335kts
11-Jun-20 12:06 35.235608 -115.886786 227 23998ft 336kts
11-Jun-20 12:07 35.172045 -115.970916 226 23998ft 336kts
11-Jun-20 12:08 35.108793 -116.054450 226 23998ft 335kts
11-Jun-20 12:09 35.045448 -116.137888 226 23997ft 335kts
11-Jun-20 12:10 34.981980 -116.221291 226 23997ft 336kts
11-Jun-20 12:11 34.918475 -116.304539 226 23996ft 337kts
11-Jun-20 12:12 34.854552 -116.388125 226 24000ft 337kts
11-Jun-20 12:13 34.790379 -116.471245 225 23887ft 340kts
11-Jun-20 12:14 34.723185 -116.554199 225 22888ft 347kts
11-Jun-20 12:15 34.655309 -116.637643 225 22003ft 344kts
11-Jun-20 12:16 34.588799 -116.719191 224 21007ft 340kts
11-Jun-20 12:17 34.522554 -116.800248 224 20004ft 332kts
11-Jun-20 12:18 34.457780 -116.879312 224 18828ft 332kts
11-Jun-20 12:19 34.392698 -116.958574 224 17325ft 333kts
11-Jun-20 12:20 34.328244 -117.036885 223 15536ft 309kts
11-Jun-20 12:21 34.271198 -117.105845 223 13938ft 275kts
11-Jun-20 12:22 34.217679 -117.170611 223 12216ft 274kts
11-Jun-20 12:23 34.164765 -117.234472 222 9204ft 272kts
11-Jun-20 12:24 34.110822 -117.299562 223 6190ft 276kts
11-Jun-20 12:25 34.056286 -117.346452 179 5515ft 215kts
11-Jun-20 12:26 34.004435 -117.335745 148 3676ft 170kts
11-Jun-20 12:27 33.968032 -117.310028 149 3800ft 158kts
11-Jun-20 12:28 33.933188 -117.280377 147 3356ft 143kts
11-Jun-20 12:29 33.904855 -117.257038 150 2772ft 119kts
11-Jun-20 12:30 33.877530 -117.236429 150 2324ft 113kts
11-Jun-20 12:31 33.856270 -117.235272 258 2018ft 85kts
11-Jun-20 12:32 33.868641 -117.250849 329 1498ft 50kts
11-Jun-20 12:33 33.873597 -117.253239 22 1503ft 0kts
11-Jun-20 12:34 33.873659 -117.253208 22 1503ft 8kts
11-Jun-20 12:35 33.875238 -117.250664 152 1499ft 22kts
11-Jun-20 12:36 33.872938 -117.248092 55 1493ft 0kts
11-Jun-20 12:37 33.872938 -117.248092 55 1493ft 0kts

Navigation Log

Ident Type
Flight plan parsing failed, navigation log unavailable